Main page
Satellite images 15-day forecastsClimateMarine weather Cyclones Lightning AirportsFAQ Newsletter About
Weather : Europe Africa North America South America Asia Australia-Oceania Others
Languages Contact

Hanover, Germany

Langenhagen

latitude: 52-28N, longitude: 009-41E, elevation: 56 m


METAR: EDDV 230720Z 26004KT 9999 FEW046 SCT300 08/07 Q1022 NOSIG
TAF: EDDV 230500Z 2306/2406 26006KT 9999 FEW020 BKN045 BECMG 2315/2317 16004KT

Time: 09:54 (07:54 UTC)

Current weather observation

The report was made 34 minutes ago, at 07:20 UTC
Wind 4 kt from the West
Temperature 8°C
Humidity 93%
Pressure 1022 hPa
Visibility 10 km or more
Few clouds at a height of 4600 ft
Scattered clouds at a height of 30000 ft

Change units

Forecast

The report was made 2 hours and 54 minutes ago, at 05:00 UTC
Forecast valid from 23 at 06 UTC to 24 at 06 UTC
Wind 6 kt from the West
Visibility 10 km or more
Few clouds at a height of 2000 ft
Broken clouds at a height of 4500 ft
Becoming
from 23 at 15 UTC to 23 at 17 UTC
Wind 4 kt from the South/Southeast
The information on this site is subject to a disclaimer
Weather : Europe Africa North America South America Asia Australia-Oceania Others
Satellite images 15-day forecastsClimateMarine weather Cyclones Lightning AirportsFAQ Languages Contact Newsletter About